sensor_id;sensor_type;location;lat;lon;timestamp;P1;durP1;ratioP1;P2;durP2;ratioP2
64018;SDS011;66942;52.138;5.216;2023-12-04T00:02:07;31.3;;;26.3;;
64018;SDS011;66942;52.138;5.216;2023-12-04T00:03:44;28.1;;;25.1;;
64018;SDS011;66942;52.138;5.216;2023-12-04T00:05:21;28.9;;;25.8;;
64018;SDS011;66942;52.138;5.216;2023-12-04T00:06:58;30.5;;;26.5;;
64018;SDS011;66942;52.138;5.216;2023-12-04T00:10:12;27.7;;;24.8;;
64018;SDS011;66942;52.138;5.216;2023-12-04T00:11:50;29.3;;;26.2;;
64018;SDS011;66942;52.138;5.216;2023-12-04T00:13:26;29.4;;;25.6;;
64018;SDS011;66942;52.138;5.216;2023-12-04T00:16:40;32.6;;;28.0;;
64018;SDS011;66942;52.138;5.216;2023-12-04T00:18:17;32.6;;;28.0;;
64018;SDS011;66942;52.138;5.216;2023-12-04T00:19:54;27.7;;;24.7;;
64018;SDS011;66942;52.138;5.216;2023-12-04T00:23:07;29.0;;;26.0;;
64018;SDS011;66942;52.138;5.216;2023-12-04T00:24:44;29.3;;;26.2;;
64018;SDS011;66942;52.138;5.216;2023-12-04T00:26:21;28.4;;;25.2;;
64018;SDS011;66942;52.138;5.216;2023-12-04T00:27:57;28.2;;;25.2;;
64018;SDS011;66942;52.138;5.216;2023-12-04T00:31:11;27.2;;;24.4;;
64018;SDS011;66942;52.138;5.216;2023-12-04T00:32:47;28.4;;;25.5;;
64018;SDS011;66942;52.138;5.216;2023-12-04T00:34:23;29.3;;;25.5;;
64018;SDS011;66942;52.138;5.216;2023-12-04T00:37:38;29.5;;;26.3;;
64018;SDS011;66942;52.138;5.216;2023-12-04T00:39:14;30.3;;;26.5;;
64018;SDS011;66942;52.138;5.216;2023-12-04T00:40:51;29.9;;;26.6;;
64018;SDS011;66942;52.138;5.216;2023-12-04T00:44:04;28.9;;;25.9;;
64018;SDS011;66942;52.138;5.216;2023-12-04T00:45:40;27.8;;;24.6;;
64018;SDS011;66942;52.138;5.216;2023-12-04T00:47:18;30.2;;;26.9;;
64018;SDS011;66942;52.138;5.216;2023-12-04T00:48:54;28.1;;;24.6;;
64018;SDS011;66942;52.138;5.216;2023-12-04T00:52:06;27.5;;;24.3;;
64018;SDS011;66942;52.138;5.216;2023-12-04T00:53:43;29.9;;;26.0;;
64018;SDS011;66942;52.138;5.216;2023-12-04T00:55:19;28.2;;;25.3;;
64018;SDS011;66942;52.138;5.216;2023-12-04T00:58:32;29.4;;;26.3;;
64018;SDS011;66942;52.138;5.216;2023-12-04T01:00:10;30.6;;;26.4;;
64018;SDS011;66942;52.138;5.216;2023-12-04T01:01:48;29.4;;;26.2;;
64018;SDS011;66942;52.138;5.216;2023-12-04T01:05:00;28.5;;;25.4;;
64018;SDS011;66942;52.138;5.216;2023-12-04T01:06:36;29.7;;;24.9;;
64018;SDS011;66942;52.138;5.216;2023-12-04T01:08:12;28.4;;;25.3;;
64018;SDS011;66942;52.138;5.216;2023-12-04T01:09:48;26.6;;;23.8;;
64018;SDS011;66942;52.138;5.216;2023-12-04T01:13:00;29.8;;;26.6;;
64018;SDS011;66942;52.138;5.216;2023-12-04T01:14:36;30.1;;;26.9;;
64018;SDS011;66942;52.138;5.216;2023-12-04T01:16:14;29.8;;;25.5;;
64018;SDS011;66942;52.138;5.216;2023-12-04T01:19:27;26.2;;;23.5;;
64018;SDS011;66942;52.138;5.216;2023-12-04T01:21:04;29.4;;;25.8;;
64018;SDS011;66942;52.138;5.216;2023-12-04T01:22:41;32.71;;;27.4;;
64018;SDS011;66942;52.138;5.216;2023-12-04T01:25:54;26.4;;;23.5;;
64018;SDS011;66942;52.138;5.216;2023-12-04T01:27:32;31.3;;;26.3;;
64018;SDS011;66942;52.138;5.216;2023-12-04T01:29:08;32.6;;;28.1;;
64018;SDS011;66942;52.138;5.216;2023-12-04T01:30:44;36.21;;;29.3;;
64018;SDS011;66942;52.138;5.216;2023-12-04T01:33:57;31.4;;;27.0;;
64018;SDS011;66942;52.138;5.216;2023-12-04T01:35:34;28.8;;;25.7;;
64018;SDS011;66942;52.138;5.216;2023-12-04T01:37:11;28.8;;;25.7;;
64018;SDS011;66942;52.138;5.216;2023-12-04T01:40:24;27.5;;;24.5;;
64018;SDS011;66942;52.138;5.216;2023-12-04T01:42:00;29.9;;;26.8;;
64018;SDS011;66942;52.138;5.216;2023-12-04T01:43:38;27.7;;;24.8;;
64018;SDS011;66942;52.138;5.216;2023-12-04T01:46:52;32.5;;;28.0;;
64018;SDS011;66942;52.138;5.216;2023-12-04T01:48:29;27.6;;;24.8;;
64018;SDS011;66942;52.138;5.216;2023-12-04T01:50:06;31.2;;;27.3;;
64018;SDS011;66942;52.138;5.216;2023-12-04T01:51:44;29.8;;;26.6;;
64018;SDS011;66942;52.138;5.216;2023-12-04T01:54:59;29.6;;;26.5;;
64018;SDS011;66942;52.138;5.216;2023-12-04T01:56:36;29.8;;;26.3;;
64018;SDS011;66942;52.138;5.216;2023-12-04T01:58:13;29.7;;;26.5;;
64018;SDS011;66942;52.138;5.216;2023-12-04T02:01:28;29.7;;;26.1;;
64018;SDS011;66942;52.138;5.216;2023-12-04T02:03:05;32.71;;;28.3;;
64018;SDS011;66942;52.138;5.216;2023-12-04T02:04:44;34.6;;;28.7;;
64018;SDS011;66942;52.138;5.216;2023-12-04T02:06:21;29.8;;;26.6;;
64018;SDS011;66942;52.138;5.216;2023-12-04T02:09:38;29.7;;;26.5;;
64018;SDS011;66942;52.138;5.216;2023-12-04T02:11:14;38.0;;;29.8;;
64018;SDS011;66942;52.138;5.216;2023-12-04T02:12:51;34.1;;;28.4;;
64018;SDS011;66942;52.138;5.216;2023-12-04T02:16:07;29.7;;;26.7;;
64018;SDS011;66942;52.138;5.216;2023-12-04T02:17:46;29.2;;;26.0;;
64018;SDS011;66942;52.138;5.216;2023-12-04T02:19:23;36.21;;;29.6;;
64018;SDS011;66942;52.138;5.216;2023-12-04T02:21:00;31.0;;;27.4;;
64018;SDS011;66942;52.138;5.216;2023-12-04T02:24:14;30.6;;;27.4;;
64018;SDS011;66942;52.138;5.216;2023-12-04T02:25:51;33.9;;;29.2;;
64018;SDS011;66942;52.138;5.216;2023-12-04T02:27:37;32.71;;;27.9;;
64018;SDS011;66942;52.138;5.216;2023-12-04T02:29:19;31.4;;;27.6;;
64018;SDS011;66942;52.138;5.216;2023-12-04T02:32:42;35.31;;;28.5;;
64018;SDS011;66942;52.138;5.216;2023-12-04T02:34:22;33.6;;;27.7;;
64018;SDS011;66942;52.138;5.216;2023-12-04T02:36:00;32.0;;;27.7;;
64018;SDS011;66942;52.138;5.216;2023-12-04T02:37:40;31.6;;;27.2;;
64018;SDS011;66942;52.138;5.216;2023-12-04T02:40:56;28.0;;;25.1;;
64018;SDS011;66942;52.138;5.216;2023-12-04T02:42:33;30.4;;;27.1;;
64018;SDS011;66942;52.138;5.216;2023-12-04T02:44:11;32.9;;;28.6;;
64018;SDS011;66942;52.138;5.216;2023-12-04T02:47:24;29.0;;;25.9;;
64018;SDS011;66942;52.138;5.216;2023-12-04T02:49:00;31.8;;;27.3;;
64018;SDS011;66942;52.138;5.216;2023-12-04T02:50:36;34.9;;;28.5;;
64018;SDS011;66942;52.138;5.216;2023-12-04T02:53:49;34.1;;;28.8;;
64018;SDS011;66942;52.138;5.216;2023-12-04T02:55:26;30.8;;;27.4;;
64018;SDS011;66942;52.138;5.216;2023-12-04T02:57:04;28.5;;;25.5;;
64018;SDS011;66942;52.138;5.216;2023-12-04T02:58:41;31.6;;;27.0;;
64018;SDS011;66942;52.138;5.216;2023-12-04T03:01:54;32.1;;;28.3;;
64018;SDS011;66942;52.138;5.216;2023-12-04T03:03:30;29.9;;;26.8;;
64018;SDS011;66942;52.138;5.216;2023-12-04T03:05:06;33.9;;;27.7;;
64018;SDS011;66942;52.138;5.216;2023-12-04T03:08:18;30.0;;;26.8;;
64018;SDS011;66942;52.138;5.216;2023-12-04T03:09:54;30.8;;;27.0;;
64018;SDS011;66942;52.138;5.216;2023-12-04T03:11:30;32.21;;;26.8;;
64018;SDS011;66942;52.138;5.216;2023-12-04T03:14:43;30.4;;;27.1;;
64018;SDS011;66942;52.138;5.216;2023-12-04T03:16:19;30.4;;;27.2;;
64018;SDS011;66942;52.138;5.216;2023-12-04T03:17:55;29.0;;;25.9;;
64018;SDS011;66942;52.138;5.216;2023-12-04T03:19:31;30.2;;;26.9;;
64018;SDS011;66942;52.138;5.216;2023-12-04T03:22:43;26.7;;;23.9;;
64018;SDS011;66942;52.138;5.216;2023-12-04T03:24:19;36.0;;;29.7;;
64018;SDS011;66942;52.138;5.216;2023-12-04T03:25:55;31.1;;;26.9;;
64018;SDS011;66942;52.138;5.216;2023-12-04T03:29:08;30.5;;;27.2;;
64018;SDS011;66942;52.138;5.216;2023-12-04T03:30:43;27.7;;;24.8;;
64018;SDS011;66942;52.138;5.216;2023-12-04T03:32:20;34.0;;;28.5;;
64018;SDS011;66942;52.138;5.216;2023-12-04T03:35:32;35.81;;;29.4;;
64018;SDS011;66942;52.138;5.216;2023-12-04T03:37:08;31.2;;;27.8;;
64018;SDS011;66942;52.138;5.216;2023-12-04T03:38:44;29.8;;;26.6;;
64018;SDS011;66942;52.138;5.216;2023-12-04T03:41:56;28.7;;;25.6;;
64018;SDS011;66942;52.138;5.216;2023-12-04T03:43:33;31.7;;;27.7;;
64018;SDS011;66942;52.138;5.216;2023-12-04T03:45:09;29.7;;;26.6;;
64018;SDS011;66942;52.138;5.216;2023-12-04T03:46:45;28.1;;;25.1;;
64018;SDS011;66942;52.138;5.216;2023-12-04T03:49:57;30.4;;;26.6;;
64018;SDS011;66942;52.138;5.216;2023-12-04T03:51:33;30.4;;;26.7;;
64018;SDS011;66942;52.138;5.216;2023-12-04T03:53:09;30.9;;;27.5;;
64018;SDS011;66942;52.138;5.216;2023-12-04T03:56:21;29.4;;;26.3;;
64018;SDS011;66942;52.138;5.216;2023-12-04T03:57:58;29.7;;;26.5;;
64018;SDS011;66942;52.138;5.216;2023-12-04T03:59:35;27.7;;;24.8;;
64018;SDS011;66942;52.138;5.216;2023-12-04T04:02:47;27.4;;;24.6;;
64018;SDS011;66942;52.138;5.216;2023-12-04T04:04:23;28.1;;;25.2;;
64018;SDS011;66942;52.138;5.216;2023-12-04T04:05:59;29.9;;;25.1;;
64018;SDS011;66942;52.138;5.216;2023-12-04T04:07:35;24.7;;;22.1;;
64018;SDS011;66942;52.138;5.216;2023-12-04T04:10:47;28.4;;;25.0;;
64018;SDS011;66942;52.138;5.216;2023-12-04T04:12:23;27.0;;;24.1;;
64018;SDS011;66942;52.138;5.216;2023-12-04T04:13:59;27.2;;;24.3;;
64018;SDS011;66942;52.138;5.216;2023-12-04T04:17:12;26.8;;;24.1;;
64018;SDS011;66942;52.138;5.216;2023-12-04T04:18:48;26.3;;;23.6;;
64018;SDS011;66942;52.138;5.216;2023-12-04T04:20:24;27.8;;;24.8;;
64018;SDS011;66942;52.138;5.216;2023-12-04T04:23:36;25.6;;;22.9;;
64018;SDS011;66942;52.138;5.216;2023-12-04T04:25:12;27.6;;;24.8;;
64018;SDS011;66942;52.138;5.216;2023-12-04T04:26:48;24.8;;;22.2;;
64018;SDS011;66942;52.138;5.216;2023-12-04T04:30:01;26.7;;;23.9;;
64018;SDS011;66942;52.138;5.216;2023-12-04T04:31:37;26.7;;;23.8;;
64018;SDS011;66942;52.138;5.216;2023-12-04T04:33:14;28.8;;;25.7;;
64018;SDS011;66942;52.138;5.216;2023-12-04T04:34:50;26.3;;;23.5;;
64018;SDS011;66942;52.138;5.216;2023-12-04T04:38:02;23.9;;;21.6;;
64018;SDS011;66942;52.138;5.216;2023-12-04T04:39:39;26.9;;;24.1;;
64018;SDS011;66942;52.138;5.216;2023-12-04T04:41:15;27.5;;;24.6;;
64018;SDS011;66942;52.138;5.216;2023-12-04T04:44:27;27.5;;;24.7;;
64018;SDS011;66942;52.138;5.216;2023-12-04T04:46:03;25.6;;;22.9;;
64018;SDS011;66942;52.138;5.216;2023-12-04T04:47:39;26.1;;;23.5;;
64018;SDS011;66942;52.138;5.216;2023-12-04T04:50:52;25.2;;;22.8;;
64018;SDS011;66942;52.138;5.216;2023-12-04T04:52:28;26.5;;;23.7;;
64018;SDS011;66942;52.138;5.216;2023-12-04T04:54:04;23.8;;;21.5;;
64018;SDS011;66942;52.138;5.216;2023-12-04T04:55:40;25.9;;;23.3;;
64018;SDS011;66942;52.138;5.216;2023-12-04T04:58:52;26.4;;;23.7;;
64018;SDS011;66942;52.138;5.216;2023-12-04T05:00:28;25.9;;;23.1;;
64018;SDS011;66942;52.138;5.216;2023-12-04T05:02:04;24.2;;;21.7;;
64018;SDS011;66942;52.138;5.216;2023-12-04T05:05:17;24.0;;;21.6;;
64018;SDS011;66942;52.138;5.216;2023-12-04T05:06:53;25.1;;;22.4;;
64018;SDS011;66942;52.138;5.216;2023-12-04T05:08:29;25.5;;;22.8;;
64018;SDS011;66942;52.138;5.216;2023-12-04T05:11:42;25.9;;;23.2;;
64018;SDS011;66942;52.138;5.216;2023-12-04T05:13:18;24.7;;;22.2;;
64018;SDS011;66942;52.138;5.216;2023-12-04T05:14:54;24.7;;;22.1;;
64018;SDS011;66942;52.138;5.216;2023-12-04T05:18:06;23.9;;;21.5;;
64018;SDS011;66942;52.138;5.216;2023-12-04T05:19:42;24.3;;;21.9;;
64018;SDS011;66942;52.138;5.216;2023-12-04T05:21:18;24.4;;;21.9;;
64018;SDS011;66942;52.138;5.216;2023-12-04T05:22:55;26.4;;;23.7;;
64018;SDS011;66942;52.138;5.216;2023-12-04T05:26:08;25.0;;;22.5;;
64018;SDS011;66942;52.138;5.216;2023-12-04T05:27:44;24.7;;;22.2;;
64018;SDS011;66942;52.138;5.216;2023-12-04T05:29:20;23.1;;;20.9;;
64018;SDS011;66942;52.138;5.216;2023-12-04T05:32:32;23.5;;;21.2;;
64018;SDS011;66942;52.138;5.216;2023-12-04T05:34:09;23.8;;;21.4;;
64018;SDS011;66942;52.138;5.216;2023-12-04T05:35:45;24.7;;;22.2;;
64018;SDS011;66942;52.138;5.216;2023-12-04T05:38:59;23.7;;;21.5;;
64018;SDS011;66942;52.138;5.216;2023-12-04T05:40:35;23.7;;;21.4;;
64018;SDS011;66942;52.138;5.216;2023-12-04T05:42:11;23.9;;;21.5;;
64018;SDS011;66942;52.138;5.216;2023-12-04T05:43:47;23.2;;;20.9;;
64018;SDS011;66942;52.138;5.216;2023-12-04T05:46:59;23.4;;;20.9;;
64018;SDS011;66942;52.138;5.216;2023-12-04T05:48:35;21.8;;;19.8;;
64018;SDS011;66942;52.138;5.216;2023-12-04T05:50:11;23.3;;;21.0;;
64018;SDS011;66942;52.138;5.216;2023-12-04T05:53:24;21.5;;;19.5;;
64018;SDS011;66942;52.138;5.216;2023-12-04T05:55:00;22.1;;;20.0;;
64018;SDS011;66942;52.138;5.216;2023-12-04T05:56:36;21.8;;;19.7;;
64018;SDS011;66942;52.138;5.216;2023-12-04T05:59:48;23.5;;;21.2;;
64018;SDS011;66942;52.138;5.216;2023-12-04T06:01:24;22.1;;;20.11;;
64018;SDS011;66942;52.138;5.216;2023-12-04T06:03:00;22.1;;;20.0;;
64018;SDS011;66942;52.138;5.216;2023-12-04T06:06:12;22.4;;;20.41;;
64018;SDS011;66942;52.138;5.216;2023-12-04T06:07:49;22.0;;;19.8;;
64018;SDS011;66942;52.138;5.216;2023-12-04T06:09:25;22.0;;;20.0;;
64018;SDS011;66942;52.138;5.216;2023-12-04T06:11:01;23.2;;;20.9;;
64018;SDS011;66942;52.138;5.216;2023-12-04T06:14:13;22.7;;;20.6;;
64018;SDS011;66942;52.138;5.216;2023-12-04T06:15:49;22.4;;;20.41;;
64018;SDS011;66942;52.138;5.216;2023-12-04T06:17:25;22.4;;;20.41;;
64018;SDS011;66942;52.138;5.216;2023-12-04T06:20:37;23.4;;;21.2;;
64018;SDS011;66942;52.138;5.216;2023-12-04T06:22:14;23.4;;;21.2;;
64018;SDS011;66942;52.138;5.216;2023-12-04T06:23:51;22.0;;;19.91;;
64018;SDS011;66942;52.138;5.216;2023-12-04T06:27:05;21.8;;;19.8;;
64018;SDS011;66942;52.138;5.216;2023-12-04T06:28:42;19.8;;;18.0;;
64018;SDS011;66942;52.138;5.216;2023-12-04T06:30:19;19.7;;;18.0;;
64018;SDS011;66942;52.138;5.216;2023-12-04T06:31:56;20.3;;;18.41;;
64018;SDS011;66942;52.138;5.216;2023-12-04T06:35:10;19.7;;;17.91;;
64018;SDS011;66942;52.138;5.216;2023-12-04T06:36:47;19.61;;;17.91;;
64018;SDS011;66942;52.138;5.216;2023-12-04T06:38:24;19.11;;;17.5;;
64018;SDS011;66942;52.138;5.216;2023-12-04T06:41:39;19.5;;;17.8;;
64018;SDS011;66942;52.138;5.216;2023-12-04T06:43:16;20.0;;;18.2;;
64018;SDS011;66942;52.138;5.216;2023-12-04T06:44:52;18.41;;;16.8;;
64018;SDS011;66942;52.138;5.216;2023-12-04T06:48:12;18.41;;;16.9;;
64018;SDS011;66942;52.138;5.216;2023-12-04T06:49:50;19.61;;;18.0;;
64018;SDS011;66942;52.138;5.216;2023-12-04T06:51:26;19.7;;;18.11;;
64018;SDS011;66942;52.138;5.216;2023-12-04T06:53:02;18.41;;;16.8;;
64018;SDS011;66942;52.138;5.216;2023-12-04T06:56:15;18.0;;;16.4;;
64018;SDS011;66942;52.138;5.216;2023-12-04T06:57:51;18.2;;;16.7;;
64018;SDS011;66942;52.138;5.216;2023-12-04T06:59:27;18.8;;;17.2;;
64018;SDS011;66942;52.138;5.216;2023-12-04T07:02:39;18.3;;;16.7;;
64018;SDS011;66942;52.138;5.216;2023-12-04T07:04:15;18.5;;;16.8;;
64018;SDS011;66942;52.138;5.216;2023-12-04T07:05:51;18.11;;;16.5;;
64018;SDS011;66942;52.138;5.216;2023-12-04T07:09:03;18.0;;;16.61;;
64018;SDS011;66942;52.138;5.216;2023-12-04T07:10:40;18.11;;;16.5;;
64018;SDS011;66942;52.138;5.216;2023-12-04T07:12:16;18.2;;;16.7;;
64018;SDS011;66942;52.138;5.216;2023-12-04T07:13:53;18.11;;;16.7;;
64018;SDS011;66942;52.138;5.216;2023-12-04T07:17:05;18.11;;;16.61;;
64018;SDS011;66942;52.138;5.216;2023-12-04T07:18:41;17.2;;;15.7;;
64018;SDS011;66942;52.138;5.216;2023-12-04T07:20:17;17.41;;;15.9;;
64018;SDS011;66942;52.138;5.216;2023-12-04T07:23:29;16.5;;;15.2;;
64018;SDS011;66942;52.138;5.216;2023-12-04T07:25:05;16.61;;;15.3;;
64018;SDS011;66942;52.138;5.216;2023-12-04T07:26:41;16.9;;;15.5;;
64018;SDS011;66942;52.138;5.216;2023-12-04T07:29:54;18.2;;;16.7;;
64018;SDS011;66942;52.138;5.216;2023-12-04T07:31:30;16.3;;;15.1;;
64018;SDS011;66942;52.138;5.216;2023-12-04T07:33:06;16.8;;;15.5;;
64018;SDS011;66942;52.138;5.216;2023-12-04T07:34:42;16.7;;;15.4;;
64018;SDS011;66942;52.138;5.216;2023-12-04T07:37:54;16.5;;;15.2;;
64018;SDS011;66942;52.138;5.216;2023-12-04T07:39:30;16.3;;;15.0;;
64018;SDS011;66942;52.138;5.216;2023-12-04T07:41:06;17.2;;;15.9;;
64018;SDS011;66942;52.138;5.216;2023-12-04T07:44:18;16.61;;;15.3;;
64018;SDS011;66942;52.138;5.216;2023-12-04T07:45:55;16.8;;;15.5;;
64018;SDS011;66942;52.138;5.216;2023-12-04T07:47:31;16.5;;;15.2;;
64018;SDS011;66942;52.138;5.216;2023-12-04T07:50:43;16.8;;;15.4;;
64018;SDS011;66942;52.138;5.216;2023-12-04T07:52:19;16.2;;;14.9;;
64018;SDS011;66942;52.138;5.216;2023-12-04T07:53:55;15.9;;;14.7;;
64018;SDS011;66942;52.138;5.216;2023-12-04T07:57:07;15.5;;;14.2;;
64018;SDS011;66942;52.138;5.216;2023-12-04T07:58:43;16.0;;;14.8;;
64018;SDS011;66942;52.138;5.216;2023-12-04T08:00:20;15.3;;;14.1;;
64018;SDS011;66942;52.138;5.216;2023-12-04T08:01:55;14.5;;;13.4;;
64018;SDS011;66942;52.138;5.216;2023-12-04T08:05:08;14.5;;;13.5;;
64018;SDS011;66942;52.138;5.216;2023-12-04T08:06:44;15.0;;;13.9;;
64018;SDS011;66942;52.138;5.216;2023-12-04T08:08:20;15.0;;;14.0;;
64018;SDS011;66942;52.138;5.216;2023-12-04T08:11:32;14.7;;;13.6;;
64018;SDS011;66942;52.138;5.216;2023-12-04T08:13:08;14.5;;;13.4;;
64018;SDS011;66942;52.138;5.216;2023-12-04T08:14:44;15.8;;;14.5;;
64018;SDS011;66942;52.138;5.216;2023-12-04T08:17:56;14.2;;;13.2;;
64018;SDS011;66942;52.138;5.216;2023-12-04T08:19:33;14.3;;;13.2;;
64018;SDS011;66942;52.138;5.216;2023-12-04T08:21:09;14.5;;;13.4;;
64018;SDS011;66942;52.138;5.216;2023-12-04T08:24:21;14.6;;;13.4;;
64018;SDS011;66942;52.138;5.216;2023-12-04T08:25:57;14.1;;;13.1;;
64018;SDS011;66942;52.138;5.216;2023-12-04T08:27:33;14.0;;;13.0;;
64018;SDS011;66942;52.138;5.216;2023-12-04T08:29:09;13.9;;;12.8;;
64018;SDS011;66942;52.138;5.216;2023-12-04T08:32:21;14.0;;;13.0;;
64018;SDS011;66942;52.138;5.216;2023-12-04T08:33:57;13.6;;;12.6;;
64018;SDS011;66942;52.138;5.216;2023-12-04T08:35:33;13.0;;;12.0;;
64018;SDS011;66942;52.138;5.216;2023-12-04T08:38:46;13.9;;;12.8;;
64018;SDS011;66942;52.138;5.216;2023-12-04T08:40:22;13.4;;;12.4;;
64018;SDS011;66942;52.138;5.216;2023-12-04T08:41:58;12.8;;;11.9;;
64018;SDS011;66942;52.138;5.216;2023-12-04T08:45:10;14.6;;;13.5;;
64018;SDS011;66942;52.138;5.216;2023-12-04T08:46:46;14.0;;;13.0;;
64018;SDS011;66942;52.138;5.216;2023-12-04T08:48:22;13.2;;;12.3;;
64018;SDS011;66942;52.138;5.216;2023-12-04T08:51:35;12.7;;;11.8;;
64018;SDS011;66942;52.138;5.216;2023-12-04T08:53:12;12.7;;;11.8;;
64018;SDS011;66942;52.138;5.216;2023-12-04T08:54:48;11.9;;;11.1;;
64018;SDS011;66942;52.138;5.216;2023-12-04T08:56:24;12.5;;;11.7;;
64018;SDS011;66942;52.138;5.216;2023-12-04T08:59:36;13.1;;;12.0;;
64018;SDS011;66942;52.138;5.216;2023-12-04T09:01:12;12.4;;;11.5;;
64018;SDS011;66942;52.138;5.216;2023-12-04T09:02:48;12.5;;;11.6;;
64018;SDS011;66942;52.138;5.216;2023-12-04T09:06:00;11.1;;;10.4;;
64018;SDS011;66942;52.138;5.216;2023-12-04T09:07:36;11.6;;;10.8;;
64018;SDS011;66942;52.138;5.216;2023-12-04T09:09:13;12.0;;;11.0;;
64018;SDS011;66942;52.138;5.216;2023-12-04T09:12:25;11.9;;;10.8;;
64018;SDS011;66942;52.138;5.216;2023-12-04T09:14:01;11.6;;;10.8;;
64018;SDS011;66942;52.138;5.216;2023-12-04T09:15:37;11.8;;;10.9;;
64018;SDS011;66942;52.138;5.216;2023-12-04T09:17:13;11.6;;;10.7;;
64018;SDS011;66942;52.138;5.216;2023-12-04T09:20:26;11.4;;;10.6;;
64018;SDS011;66942;52.138;5.216;2023-12-04T09:22:02;10.5;;;9.81;;
64018;SDS011;66942;52.138;5.216;2023-12-04T09:23:38;11.1;;;10.4;;
64018;SDS011;66942;52.138;5.216;2023-12-04T09:26:51;11.5;;;10.7;;
64018;SDS011;66942;52.138;5.216;2023-12-04T09:28:27;10.9;;;10.21;;
64018;SDS011;66942;52.138;5.216;2023-12-04T09:30:03;11.2;;;10.5;;
64018;SDS011;66942;52.138;5.216;2023-12-04T09:33:16;12.8;;;11.8;;
64018;SDS011;66942;52.138;5.216;2023-12-04T09:34:52;12.0;;;11.2;;
64018;SDS011;66942;52.138;5.216;2023-12-04T09:36:28;10.7;;;10.0;;
64018;SDS011;66942;52.138;5.216;2023-12-04T09:39:41;10.4;;;9.71;;
64018;SDS011;66942;52.138;5.216;2023-12-04T09:41:17;10.9;;;10.21;;
64018;SDS011;66942;52.138;5.216;2023-12-04T09:42:54;11.4;;;10.7;;
64018;SDS011;66942;52.138;5.216;2023-12-04T09:44:31;14.1;;;13.0;;
64018;SDS011;66942;52.138;5.216;2023-12-04T09:47:46;15.8;;;14.4;;
64018;SDS011;66942;52.138;5.216;2023-12-04T09:49:24;16.8;;;15.0;;
64018;SDS011;66942;52.138;5.216;2023-12-04T09:51:04;10.8;;;10.1;;
64018;SDS011;66942;52.138;5.216;2023-12-04T09:54:18;12.9;;;11.9;;
64018;SDS011;66942;52.138;5.216;2023-12-04T09:55:56;13.9;;;12.6;;
64018;SDS011;66942;52.138;5.216;2023-12-04T09:57:35;12.9;;;11.9;;
64018;SDS011;66942;52.138;5.216;2023-12-04T09:59:11;10.5;;;9.71;;
64018;SDS011;66942;52.138;5.216;2023-12-04T10:02:28;10.7;;;9.9;;
64018;SDS011;66942;52.138;5.216;2023-12-04T10:04:05;11.1;;;10.3;;
64018;SDS011;66942;52.138;5.216;2023-12-04T10:05:43;12.1;;;11.2;;
64018;SDS011;66942;52.138;5.216;2023-12-04T10:08:56;12.1;;;11.1;;
64018;SDS011;66942;52.138;5.216;2023-12-04T10:10:32;10.1;;;9.5;;
64018;SDS011;66942;52.138;5.216;2023-12-04T10:12:08;11.2;;;10.3;;
64018;SDS011;66942;52.138;5.216;2023-12-04T10:13:45;10.8;;;10.1;;
64018;SDS011;66942;52.138;5.216;2023-12-04T10:16:57;10.4;;;9.6;;
64018;SDS011;66942;52.138;5.216;2023-12-04T10:18:33;11.3;;;10.4;;
64018;SDS011;66942;52.138;5.216;2023-12-04T10:20:10;12.8;;;11.9;;
64018;SDS011;66942;52.138;5.216;2023-12-04T10:23:36;12.5;;;11.5;;
64018;SDS011;66942;52.138;5.216;2023-12-04T10:25:14;13.6;;;12.5;;
64018;SDS011;66942;52.138;5.216;2023-12-04T10:26:50;14.0;;;12.8;;
64018;SDS011;66942;52.138;5.216;2023-12-04T10:28:27;10.9;;;10.1;;
64018;SDS011;66942;52.138;5.216;2023-12-04T10:31:40;10.9;;;10.0;;
64018;SDS011;66942;52.138;5.216;2023-12-04T10:33:16;11.8;;;10.9;;
64018;SDS011;66942;52.138;5.216;2023-12-04T10:34:52;17.11;;;15.4;;
64018;SDS011;66942;52.138;5.216;2023-12-04T10:38:06;12.5;;;11.6;;
64018;SDS011;66942;52.138;5.216;2023-12-04T10:39:45;13.3;;;12.2;;
64018;SDS011;66942;52.138;5.216;2023-12-04T10:41:22;13.6;;;12.5;;
64018;SDS011;66942;52.138;5.216;2023-12-04T10:43:09;11.9;;;10.9;;
64018;SDS011;66942;52.138;5.216;2023-12-04T10:45:04;11.0;;;10.21;;
64018;SDS011;66942;52.138;5.216;2023-12-04T10:48:18;11.8;;;10.8;;
64018;SDS011;66942;52.138;5.216;2023-12-04T10:49:55;10.6;;;9.9;;
64018;SDS011;66942;52.138;5.216;2023-12-04T10:51:31;11.1;;;10.3;;
64018;SDS011;66942;52.138;5.216;2023-12-04T10:54:44;12.1;;;11.1;;
64018;SDS011;66942;52.138;5.216;2023-12-04T10:56:24;11.7;;;10.9;;
64018;SDS011;66942;52.138;5.216;2023-12-04T10:58:06;10.9;;;10.1;;
64018;SDS011;66942;52.138;5.216;2023-12-04T10:59:44;12.0;;;10.4;;
64018;SDS011;66942;52.138;5.216;2023-12-04T11:02:58;13.7;;;12.5;;
64018;SDS011;66942;52.138;5.216;2023-12-04T11:04:40;12.2;;;11.3;;
64018;SDS011;66942;52.138;5.216;2023-12-04T11:06:18;12.6;;;11.5;;
64018;SDS011;66942;52.138;5.216;2023-12-04T11:09:37;13.1;;;12.0;;
64018;SDS011;66942;52.138;5.216;2023-12-04T11:11:15;12.1;;;11.1;;
64018;SDS011;66942;52.138;5.216;2023-12-04T11:12:59;11.8;;;10.9;;
64018;SDS011;66942;52.138;5.216;2023-12-04T11:14:46;11.3;;;10.4;;
64018;SDS011;66942;52.138;5.216;2023-12-04T11:16:30;11.4;;;10.7;;
64018;SDS011;66942;52.138;5.216;2023-12-04T11:19:59;11.4;;;10.5;;
64018;SDS011;66942;52.138;5.216;2023-12-04T11:21:40;10.8;;;10.0;;
64018;SDS011;66942;52.138;5.216;2023-12-04T11:23:17;11.9;;;11.0;;
64018;SDS011;66942;52.138;5.216;2023-12-04T11:24:53;11.0;;;10.3;;
64018;SDS011;66942;52.138;5.216;2023-12-04T11:28:08;11.1;;;10.3;;
64018;SDS011;66942;52.138;5.216;2023-12-04T11:29:45;10.6;;;9.81;;
64018;SDS011;66942;52.138;5.216;2023-12-04T11:31:22;12.2;;;11.3;;
64018;SDS011;66942;52.138;5.216;2023-12-04T11:34:37;12.1;;;11.2;;
64018;SDS011;66942;52.138;5.216;2023-12-04T11:36:13;11.6;;;10.8;;
64018;SDS011;66942;52.138;5.216;2023-12-04T11:37:51;12.0;;;11.1;;
64018;SDS011;66942;52.138;5.216;2023-12-04T11:39:28;12.6;;;11.6;;
64018;SDS011;66942;52.138;5.216;2023-12-04T11:42:51;11.6;;;10.8;;
64018;SDS011;66942;52.138;5.216;2023-12-04T11:44:28;11.2;;;10.4;;
64018;SDS011;66942;52.138;5.216;2023-12-04T11:46:07;11.2;;;10.4;;
64018;SDS011;66942;52.138;5.216;2023-12-04T11:49:27;12.8;;;11.7;;
64018;SDS011;66942;52.138;5.216;2023-12-04T11:51:05;12.9;;;11.9;;
64018;SDS011;66942;52.138;5.216;2023-12-04T11:52:42;12.6;;;11.7;;
64018;SDS011;66942;52.138;5.216;2023-12-04T11:54:18;12.5;;;11.6;;
64018;SDS011;66942;52.138;5.216;2023-12-04T11:57:34;12.6;;;11.6;;
64018;SDS011;66942;52.138;5.216;2023-12-04T11:59:11;13.4;;;12.3;;
64018;SDS011;66942;52.138;5.216;2023-12-04T12:00:47;12.8;;;11.9;;
64018;SDS011;66942;52.138;5.216;2023-12-04T12:03:59;13.3;;;12.3;;
64018;SDS011;66942;52.138;5.216;2023-12-04T12:05:36;12.9;;;11.9;;
64018;SDS011;66942;52.138;5.216;2023-12-04T12:07:12;14.3;;;13.3;;
64018;SDS011;66942;52.138;5.216;2023-12-04T12:08:50;13.3;;;12.2;;
64018;SDS011;66942;52.138;5.216;2023-12-04T12:12:03;13.3;;;12.3;;
64018;SDS011;66942;52.138;5.216;2023-12-04T12:13:40;12.8;;;11.9;;
64018;SDS011;66942;52.138;5.216;2023-12-04T12:15:16;14.1;;;13.0;;
64018;SDS011;66942;52.138;5.216;2023-12-04T12:18:30;14.9;;;13.7;;
64018;SDS011;66942;52.138;5.216;2023-12-04T12:20:12;13.5;;;12.5;;
64018;SDS011;66942;52.138;5.216;2023-12-04T12:21:50;14.9;;;13.7;;
64018;SDS011;66942;52.138;5.216;2023-12-04T12:23:26;14.7;;;13.6;;
64018;SDS011;66942;52.138;5.216;2023-12-04T12:26:40;16.9;;;15.4;;
64018;SDS011;66942;52.138;5.216;2023-12-04T12:28:17;15.1;;;13.8;;
64018;SDS011;66942;52.138;5.216;2023-12-04T12:29:53;13.7;;;12.6;;
64018;SDS011;66942;52.138;5.216;2023-12-04T12:33:05;14.2;;;13.2;;
64018;SDS011;66942;52.138;5.216;2023-12-04T12:34:41;15.1;;;13.9;;